createdAt,value
2017-06-04T00:00:55.743Z,21.59
2017-06-04T00:01:57.068Z,21.72
2017-06-04T00:02:59.177Z,21.71
2017-06-04T00:04:00.505Z,21.61
2017-06-04T00:05:01.851Z,21.66
2017-06-04T00:06:03.256Z,21.67
2017-06-04T00:07:04.722Z,21.64
2017-06-04T00:08:06.046Z,21.63
2017-06-04T00:09:07.367Z,21.60
2017-06-04T00:10:08.687Z,21.56
2017-06-04T00:11:10.060Z,21.53
2017-06-04T00:12:11.380Z,21.59
2017-06-04T00:13:12.758Z,21.57
2017-06-04T00:14:14.079Z,21.48
2017-06-04T00:15:15.409Z,21.42
2017-06-04T00:16:16.747Z,21.50
2017-06-04T00:17:18.067Z,21.50
2017-06-04T00:18:19.408Z,21.35
2017-06-04T00:19:20.726Z,21.48
2017-06-04T00:20:22.046Z,21.46
2017-06-04T00:21:23.370Z,21.42
2017-06-04T00:22:24.692Z,21.38
2017-06-04T00:23:26.014Z,21.36
2017-06-04T00:24:27.353Z,21.32
2017-06-04T00:25:28.675Z,21.26
2017-06-04T00:26:30.001Z,21.35
2017-06-04T00:27:31.392Z,21.24
2017-06-04T00:28:32.706Z,21.20
2017-06-04T00:29:34.028Z,21.38
2017-06-04T00:30:35.348Z,21.38
2017-06-04T00:31:36.678Z,21.38
2017-06-04T00:32:38.042Z,21.35
2017-06-04T00:33:39.362Z,21.34
2017-06-04T00:34:40.695Z,21.38
2017-06-04T00:35:42.019Z,21.38
2017-06-04T00:36:43.347Z,21.26
2017-06-04T00:37:45.094Z,21.32
2017-06-04T00:38:46.392Z,21.27
2017-06-04T00:39:47.715Z,21.26
2017-06-04T00:40:49.060Z,21.29
2017-06-04T00:41:50.386Z,21.34
2017-06-04T00:42:51.734Z,21.29
2017-06-04T00:43:53.130Z,21.34
2017-06-04T00:44:54.444Z,21.24
2017-06-04T00:45:55.787Z,21.30
2017-06-04T00:47:04.067Z,21.23
2017-06-04T00:48:05.391Z,21.23
2017-06-04T00:49:06.757Z,21.23
2017-06-04T00:50:08.103Z,21.23
2017-06-04T00:51:09.419Z,21.14
2017-06-04T00:52:10.757Z,21.17
2017-06-04T00:53:12.118Z,21.24
2017-06-04T00:54:13.441Z,21.26
2017-06-04T00:55:14.765Z,21.17
2017-06-04T00:56:16.099Z,21.20
2017-06-04T00:57:17.478Z,21.19
2017-06-04T00:58:19.570Z,21.13
2017-06-04T00:59:20.965Z,21.16
2017-06-04T01:00:22.298Z,21.17
2017-06-04T01:01:23.607Z,21.04
2017-06-04T01:02:24.987Z,21.16
2017-06-04T01:03:26.304Z,21.09
2017-06-04T01:04:27.621Z,21.16
2017-06-04T01:05:28.948Z,21.02
2017-06-04T01:06:31.106Z,21.14
2017-06-04T01:07:32.422Z,21.08
2017-06-04T01:08:33.742Z,21.16
2017-06-04T01:09:35.086Z,21.13
2017-06-04T01:10:36.389Z,21.11
2017-06-04T01:11:37.711Z,21.13
2017-06-04T01:12:39.028Z,21.16
2017-06-04T01:13:40.379Z,21.17
2017-06-04T01:14:41.754Z,21.16
2017-06-04T01:15:43.088Z,21.17
2017-06-04T01:16:44.402Z,21.08
2017-06-04T01:17:45.724Z,21.11
2017-06-04T01:18:47.044Z,21.16
2017-06-04T01:19:48.368Z,21.23
2017-06-04T01:20:49.686Z,21.13
2017-06-04T01:21:51.005Z,21.13
2017-06-04T01:22:52.324Z,21.11
2017-06-04T01:23:53.642Z,21.11
2017-06-04T01:24:54.966Z,21.11
2017-06-04T01:25:56.280Z,21.16
2017-06-04T01:26:57.603Z,21.11
2017-06-04T01:27:58.921Z,21.06
2017-06-04T01:29:00.246Z,21.02
2017-06-04T01:30:01.568Z,21.04
2017-06-04T01:31:02.895Z,20.98
2017-06-04T01:32:04.212Z,21.02
2017-06-04T01:33:05.532Z,21.02
2017-06-04T01:34:06.853Z,20.91
2017-06-04T01:35:08.232Z,21.04
2017-06-04T01:36:09.623Z,20.98
2017-06-04T01:37:10.944Z,20.96
2017-06-04T01:38:12.290Z,20.93
2017-06-04T01:39:13.619Z,21.06
2017-06-04T01:40:14.933Z,21.05
2017-06-04T01:41:16.252Z,20.99
2017-06-04T01:42:17.740Z,21.01
2017-06-04T01:43:19.075Z,21.08
2017-06-04T01:44:20.424Z,21.05
2017-06-04T01:45:24.710Z,21.05
2017-06-04T01:46:26.042Z,20.96
2017-06-04T01:47:28.079Z,20.96
2017-06-04T01:48:29.398Z,20.87
2017-06-04T01:49:30.720Z,20.91
2017-06-04T01:50:32.042Z,20.95
2017-06-04T01:51:33.356Z,20.84
2017-06-04T01:52:34.681Z,20.87
2017-06-04T01:53:36.011Z,20.90
2017-06-04T01:54:37.328Z,20.87
2017-06-04T01:55:38.707Z,20.91
2017-06-04T01:56:40.034Z,20.84
2017-06-04T01:57:41.355Z,20.91
2017-06-04T01:58:42.712Z,20.95
2017-06-04T01:59:44.073Z,20.90
2017-06-04T02:00:46.305Z,20.98
2017-06-04T02:01:47.622Z,20.89
2017-06-04T02:02:48.947Z,20.93
2017-06-04T02:03:50.367Z,20.99
2017-06-04T02:04:51.675Z,21.04
2017-06-04T02:05:53.011Z,20.99
2017-06-04T02:06:54.323Z,21.02
2017-06-04T02:07:55.646Z,20.98
2017-06-04T02:08:56.969Z,20.81
2017-06-04T02:09:58.327Z,20.87
2017-06-04T02:10:59.651Z,20.98
2017-06-04T02:12:00.987Z,20.90
2017-06-04T02:13:02.320Z,20.95
2017-06-04T02:14:03.633Z,20.80
2017-06-04T02:15:04.958Z,20.87
2017-06-04T02:16:06.341Z,20.91
2017-06-04T02:17:07.658Z,20.95
2017-06-04T02:18:08.976Z,20.87
2017-06-04T02:19:10.293Z,20.90
2017-06-04T02:20:11.631Z,20.98
2017-06-04T02:21:12.951Z,20.96
2017-06-04T02:22:14.266Z,20.95
2017-06-04T02:23:15.584Z,20.96
2017-06-04T02:24:16.905Z,21.01
2017-06-04T02:25:18.225Z,20.93
2017-06-04T02:26:19.579Z,20.91
2017-06-04T02:27:20.902Z,20.93
2017-06-04T02:28:22.225Z,20.98
2017-06-04T02:29:23.608Z,20.96
2017-06-04T02:30:24.923Z,21.04
2017-06-04T02:31:26.253Z,21.05
2017-06-04T02:32:27.661Z,21.04
2017-06-04T02:33:28.988Z,20.99
2017-06-04T02:34:30.305Z,21.01
2017-06-04T02:35:31.633Z,20.98
2017-06-04T02:36:32.956Z,21.02
2017-06-04T02:37:34.272Z,20.93
2017-06-04T02:38:35.591Z,20.91
2017-06-04T02:39:36.915Z,20.93
2017-06-04T02:40:38.262Z,20.91
2017-06-04T02:41:39.585Z,20.89
2017-06-04T02:42:40.904Z,20.84
2017-06-04T02:43:42.238Z,20.86
2017-06-04T02:44:43.553Z,20.90
2017-06-04T02:45:44.873Z,20.87
2017-06-04T02:46:46.212Z,20.87
2017-06-04T02:47:47.529Z,20.80
2017-06-04T02:48:48.848Z,20.89
2017-06-04T02:49:50.234Z,20.91
2017-06-04T02:50:51.557Z,20.83
2017-06-04T02:51:52.876Z,20.87
2017-06-04T02:52:54.239Z,20.98
2017-06-04T02:53:55.557Z,20.96
2017-06-04T02:54:56.878Z,20.95
2017-06-04T02:55:58.253Z,20.95
2017-06-04T02:56:59.586Z,20.96
2017-06-04T02:58:00.908Z,20.89
2017-06-04T02:59:02.243Z,20.84
2017-06-04T03:00:03.609Z,20.90
2017-06-04T03:01:04.932Z,20.93
2017-06-04T03:02:06.258Z,20.90
2017-06-04T03:03:07.582Z,20.91
2017-06-04T03:04:08.999Z,20.87
2017-06-04T03:05:11.107Z,20.86
2017-06-04T03:06:12.434Z,20.80
2017-06-04T03:07:13.760Z,20.89
2017-06-04T03:08:15.077Z,20.79
2017-06-04T03:09:16.400Z,20.80
2017-06-04T03:10:17.725Z,20.83
2017-06-04T03:11:19.053Z,20.91
2017-06-04T03:12:20.376Z,20.80
2017-06-04T03:13:21.704Z,20.74
2017-06-04T03:14:23.028Z,20.77
2017-06-04T03:15:24.354Z,20.84
2017-06-04T03:16:25.680Z,20.81
2017-06-04T03:17:27.005Z,20.80
2017-06-04T03:18:28.328Z,20.87
2017-06-04T03:19:29.652Z,20.83
2017-06-04T03:20:31.608Z,20.83
2017-06-04T03:21:32.933Z,20.80
2017-06-04T03:22:34.256Z,20.83
2017-06-04T03:23:35.580Z,20.80
2017-06-04T03:24:36.902Z,20.79
2017-06-04T03:25:38.226Z,20.79
2017-06-04T03:26:39.545Z,20.72
2017-06-04T03:27:40.870Z,20.76
2017-06-04T03:28:42.195Z,20.84
2017-06-04T03:29:43.515Z,20.90
2017-06-04T03:30:44.839Z,20.93
2017-06-04T03:31:46.161Z,20.87
2017-06-04T03:32:47.493Z,20.90
2017-06-04T03:33:48.817Z,20.87
2017-06-04T03:34:50.140Z,20.87
2017-06-04T03:35:51.463Z,20.86
2017-06-04T03:36:52.832Z,20.80
2017-06-04T03:37:54.179Z,20.83
2017-06-04T03:38:55.495Z,20.79
2017-06-04T03:39:56.826Z,20.95
2017-06-04T03:40:58.148Z,20.87
2017-06-04T03:41:59.473Z,20.95
2017-06-04T03:43:00.800Z,20.81
2017-06-04T03:44:02.137Z,20.90
2017-06-04T03:45:03.469Z,20.84
2017-06-04T03:46:04.795Z,20.87
2017-06-04T03:47:06.137Z,20.87
2017-06-04T03:48:07.468Z,20.91
2017-06-04T03:49:08.782Z,20.93
2017-06-04T03:50:10.135Z,20.91
2017-06-04T03:51:11.458Z,20.95
2017-06-04T03:52:12.782Z,20.79
2017-06-04T03:53:14.104Z,20.84
2017-06-04T03:54:15.493Z,20.80
2017-06-04T03:55:16.821Z,20.87
2017-06-04T03:56:18.143Z,20.91
2017-06-04T03:57:19.464Z,20.93
2017-06-04T03:58:20.797Z,20.98
2017-06-04T03:59:22.127Z,21.06
2017-06-04T04:00:23.452Z,21.14
2017-06-04T04:01:24.782Z,21.11
2017-06-04T04:02:26.104Z,21.02
2017-06-04T04:03:27.439Z,20.95
2017-06-04T04:04:28.763Z,20.98
2017-06-04T04:05:30.127Z,21.02
2017-06-04T04:06:32.176Z,21.06
2017-06-04T04:07:33.505Z,21.04
2017-06-04T04:08:34.848Z,21.05
2017-06-04T04:09:36.176Z,21.05
2017-06-04T04:10:37.573Z,21.05
2017-06-04T04:11:38.916Z,21.11
2017-06-04T04:12:40.242Z,21.13
2017-06-04T04:13:41.667Z,21.09
2017-06-04T04:14:42.991Z,21.05
2017-06-04T04:15:44.324Z,21.02
2017-06-04T04:16:45.644Z,21.02
2017-06-04T04:17:46.972Z,21.05
2017-06-04T04:18:48.387Z,21.08
2017-06-04T04:19:49.721Z,21.14
2017-06-04T04:20:51.047Z,21.23
2017-06-04T04:21:52.375Z,21.09
2017-06-04T04:22:53.703Z,21.19
2017-06-04T04:23:55.029Z,21.11
2017-06-04T04:24:56.350Z,21.02
2017-06-04T04:25:57.681Z,21.13
2017-06-04T04:26:59.011Z,21.11
2017-06-04T04:28:00.347Z,21.20
2017-06-04T04:29:01.677Z,21.26
2017-06-04T04:30:03.007Z,21.24
2017-06-04T04:31:04.380Z,21.23
2017-06-04T04:32:06.640Z,21.20
2017-06-04T04:33:08.636Z,21.19
2017-06-04T04:34:09.953Z,21.19
2017-06-04T04:35:11.278Z,21.23
2017-06-04T04:36:12.610Z,21.13
2017-06-04T04:37:13.941Z,21.21
2017-06-04T04:38:15.265Z,21.20
2017-06-04T04:39:16.589Z,21.24
2017-06-04T04:40:17.926Z,21.29
2017-06-04T04:41:19.253Z,21.36
2017-06-04T04:42:20.605Z,21.30
2017-06-04T04:43:21.934Z,21.20
2017-06-04T04:44:23.254Z,21.23
2017-06-04T04:45:24.587Z,21.24
2017-06-04T04:46:25.975Z,21.34
2017-06-04T04:47:27.306Z,21.53
2017-06-04T04:48:28.797Z,21.45
2017-06-04T04:49:30.122Z,21.29
2017-06-04T04:50:31.489Z,21.46
2017-06-04T04:51:32.825Z,21.46
2017-06-04T04:52:34.147Z,21.46
2017-06-04T04:53:35.473Z,21.54
2017-06-04T04:54:36.818Z,21.50
2017-06-04T04:55:38.153Z,21.51
2017-06-04T04:56:39.490Z,21.53
2017-06-04T04:57:40.812Z,21.51
2017-06-04T04:58:42.256Z,21.51
2017-06-04T04:59:43.578Z,21.59
2017-06-04T05:00:44.900Z,21.57
2017-06-04T05:01:46.233Z,21.54
2017-06-04T05:02:47.567Z,21.54
2017-06-04T05:03:48.904Z,21.67
2017-06-04T05:04:50.230Z,21.59
2017-06-04T05:05:51.594Z,21.69
2017-06-04T05:06:52.919Z,21.71
2017-06-04T05:07:54.250Z,21.91
2017-06-04T05:08:55.580Z,21.82
2017-06-04T05:09:56.906Z,21.71
2017-06-04T05:10:58.235Z,21.75
2017-06-04T05:11:59.559Z,21.85
2017-06-04T05:13:00.887Z,21.87
2017-06-04T05:14:02.228Z,22.02
2017-06-04T05:15:03.551Z,22.04
2017-06-04T05:16:04.878Z,21.98
2017-06-04T05:17:06.213Z,22.02
2017-06-04T05:18:07.668Z,22.06
2017-06-04T05:19:09.002Z,21.99
2017-06-04T05:20:10.333Z,21.99
2017-06-04T05:21:11.660Z,21.98
2017-06-04T05:22:13.014Z,22.01
2017-06-04T05:23:14.344Z,22.09
2017-06-04T05:24:15.792Z,22.17
2017-06-04T05:25:17.146Z,22.20
2017-06-04T05:26:18.444Z,22.07
2017-06-04T05:27:19.773Z,22.14
2017-06-04T05:28:21.113Z,22.09
2017-06-04T05:29:22.447Z,22.12
2017-06-04T05:30:23.773Z,22.31
2017-06-04T05:31:25.103Z,22.29
2017-06-04T05:32:26.428Z,22.28
2017-06-04T05:33:27.761Z,22.32
2017-06-04T05:34:29.118Z,22.43
2017-06-04T05:35:30.441Z,22.43
2017-06-04T05:36:31.767Z,22.43
2017-06-04T05:37:33.087Z,22.47
2017-06-04T05:38:34.420Z,22.41
2017-06-04T05:39:35.751Z,22.44
2017-06-04T05:40:37.106Z,22.49
2017-06-04T05:41:38.433Z,22.53
2017-06-04T05:42:39.807Z,22.68
2017-06-04T05:43:41.142Z,22.62
2017-06-04T05:44:42.475Z,22.59
2017-06-04T05:45:43.820Z,22.74
2017-06-04T05:46:45.151Z,22.82
2017-06-04T05:47:46.480Z,22.65
2017-06-04T05:48:47.882Z,22.78
2017-06-04T05:49:49.205Z,22.80
2017-06-04T05:50:50.581Z,22.78
2017-06-04T05:51:51.917Z,22.82
2017-06-04T05:52:53.243Z,22.82
2017-06-04T05:53:54.570Z,22.77
2017-06-04T05:54:55.983Z,22.86
2017-06-04T05:55:57.305Z,22.93
2017-06-04T05:56:58.629Z,22.92
2017-06-04T05:57:59.955Z,22.90
2017-06-04T05:59:01.299Z,22.92
2017-06-04T06:00:02.862Z,22.90
2017-06-04T06:01:04.219Z,22.96
2017-06-04T06:02:05.555Z,22.97
2017-06-04T06:03:06.873Z,22.99
2017-06-04T06:04:09.140Z,23.02
2017-06-04T06:05:10.481Z,23.19
2017-06-04T06:06:11.808Z,23.15
2017-06-04T06:07:13.166Z,23.15
2017-06-04T06:08:14.502Z,23.20
2017-06-04T06:09:15.917Z,23.14
2017-06-04T06:10:17.243Z,23.22
2017-06-04T06:11:18.595Z,23.29
2017-06-04T06:12:19.956Z,23.38
2017-06-04T06:13:21.257Z,23.40
2017-06-04T06:14:22.574Z,23.49
2017-06-04T06:15:23.920Z,23.49
2017-06-04T06:16:25.256Z,23.60
2017-06-04T06:17:26.591Z,23.55
2017-06-04T06:18:27.913Z,23.71
2017-06-04T06:19:29.243Z,23.58
2017-06-04T06:20:31.147Z,23.46
2017-06-04T06:21:32.472Z,23.52
2017-06-04T06:22:33.804Z,23.43
2017-06-04T06:23:35.136Z,23.47
2017-06-04T06:24:36.457Z,23.61
2017-06-04T06:25:37.790Z,23.68
2017-06-04T06:26:39.121Z,23.62
2017-06-04T06:27:40.447Z,23.67
2017-06-04T06:28:41.773Z,23.75
2017-06-04T06:29:43.101Z,23.80
2017-06-04T06:30:44.427Z,23.86
2017-06-04T06:31:45.759Z,23.97
2017-06-04T06:32:47.148Z,24.00
2017-06-04T06:33:48.476Z,24.05
2017-06-04T06:34:49.844Z,24.07
2017-06-04T06:35:51.180Z,24.05
2017-06-04T06:36:52.516Z,24.10
2017-06-04T06:37:53.921Z,24.10
2017-06-04T06:38:55.240Z,24.12
2017-06-04T06:39:56.569Z,24.19
2017-06-04T06:40:57.958Z,24.13
2017-06-04T06:41:59.287Z,24.05
2017-06-04T06:43:00.613Z,24.10
2017-06-04T06:44:01.954Z,24.14
2017-06-04T06:45:03.282Z,24.31
2017-06-04T06:46:04.658Z,24.27
2017-06-04T06:47:06.008Z,24.38
2017-06-04T06:48:07.342Z,24.34
2017-06-04T06:49:08.662Z,24.34
2017-06-04T06:50:09.996Z,24.29
2017-06-04T06:51:11.325Z,24.27
2017-06-04T06:52:12.653Z,24.34
2017-06-04T06:53:13.982Z,24.39
2017-06-04T06:54:15.309Z,24.52
2017-06-04T06:55:16.640Z,24.50
2017-06-04T06:56:17.969Z,24.54
2017-06-04T06:57:19.291Z,24.61
2017-06-04T06:58:20.623Z,24.59
2017-06-04T06:59:21.981Z,24.64
2017-06-04T07:00:23.321Z,24.61
2017-06-04T07:01:24.748Z,24.56
2017-06-04T07:02:26.070Z,24.61
2017-06-04T07:03:27.405Z,24.63
2017-06-04T07:04:28.742Z,24.67
2017-06-04T07:05:30.650Z,24.59
2017-06-04T07:06:32.010Z,24.57
2017-06-04T07:07:33.345Z,24.64
2017-06-04T07:08:34.672Z,24.69
2017-06-04T07:09:36.062Z,24.82
2017-06-04T07:10:37.402Z,24.85
2017-06-04T07:11:38.717Z,24.83
2017-06-04T07:12:40.049Z,24.90
2017-06-04T07:13:41.376Z,24.97
2017-06-04T07:14:42.703Z,25.00
2017-06-04T07:15:44.032Z,24.97
2017-06-04T07:16:45.364Z,25.00
2017-06-04T07:17:46.704Z,25.15
2017-06-04T07:18:48.034Z,25.10
2017-06-04T07:19:49.358Z,25.07
2017-06-04T07:20:50.709Z,25.15
2017-06-04T07:21:52.045Z,25.22
2017-06-04T07:22:53.370Z,25.20
2017-06-04T07:23:54.700Z,25.22
2017-06-04T07:24:56.031Z,25.31
2017-06-04T07:25:57.353Z,25.28
2017-06-04T07:26:58.778Z,25.35
2017-06-04T07:28:00.111Z,25.38
2017-06-04T07:29:01.432Z,25.43
2017-06-04T07:30:02.766Z,25.42
2017-06-04T07:31:04.183Z,25.44
2017-06-04T07:32:05.510Z,25.53
2017-06-04T07:33:06.864Z,25.53
2017-06-04T07:34:08.167Z,25.53
2017-06-04T07:35:09.499Z,25.53
2017-06-04T07:36:10.857Z,25.65
2017-06-04T07:37:12.194Z,25.72
2017-06-04T07:38:13.524Z,25.72
2017-06-04T07:39:14.879Z,25.77
2017-06-04T07:40:16.248Z,25.83
2017-06-04T07:41:17.598Z,25.84
2017-06-04T07:42:21.546Z,25.93
2017-06-04T07:43:22.887Z,25.91
2017-06-04T07:44:24.216Z,25.97
2017-06-04T07:45:25.545Z,25.94
2017-06-04T07:46:26.886Z,26.05
2017-06-04T07:47:28.268Z,25.94
2017-06-04T07:48:29.632Z,26.06
2017-06-04T07:49:30.952Z,26.12
2017-06-04T07:50:32.306Z,26.17
2017-06-04T07:51:33.633Z,26.17
2017-06-04T07:52:34.968Z,26.09
2017-06-04T07:53:36.302Z,26.15
2017-06-04T07:54:37.646Z,26.27
2017-06-04T07:55:38.983Z,26.32
2017-06-04T07:56:40.325Z,26.32
2017-06-04T07:57:41.680Z,26.37
2017-06-04T07:58:42.999Z,26.42
2017-06-04T07:59:44.337Z,26.36
2017-06-04T08:00:45.664Z,26.43
2017-06-04T08:01:46.988Z,26.44
2017-06-04T08:02:48.329Z,26.49
2017-06-04T08:03:49.664Z,26.58
2017-06-04T08:04:51.008Z,26.43
2017-06-04T08:05:52.338Z,26.61
2017-06-04T08:06:53.679Z,26.62
2017-06-04T08:07:55.014Z,26.54
2017-06-04T08:08:56.345Z,26.54
2017-06-04T08:09:57.683Z,26.61
2017-06-04T08:10:59.064Z,26.62
2017-06-04T08:12:00.401Z,26.58
2017-06-04T08:13:01.797Z,26.58
2017-06-04T08:14:03.401Z,26.72
2017-06-04T08:15:04.714Z,26.68
2017-06-04T08:16:06.039Z,26.69
2017-06-04T08:17:07.371Z,26.80
2017-06-04T08:18:08.691Z,26.83
2017-06-04T08:19:10.017Z,26.87
2017-06-04T08:20:11.346Z,26.95
2017-06-04T08:21:12.682Z,26.89
2017-06-04T08:22:14.051Z,26.95
2017-06-04T08:23:16.171Z,26.95
2017-06-04T08:24:17.523Z,26.98
2017-06-04T08:25:18.848Z,26.99
2017-06-04T08:26:22.680Z,26.99
2017-06-04T08:27:23.998Z,27.06
2017-06-04T08:28:25.333Z,27.10
2017-06-04T08:29:26.662Z,27.13
2017-06-04T08:30:27.985Z,27.17
2017-06-04T08:31:29.324Z,27.10
2017-06-04T08:32:31.186Z,27.09
2017-06-04T08:33:32.507Z,27.06
2017-06-04T08:34:33.839Z,27.21
2017-06-04T08:35:35.172Z,27.21
2017-06-04T08:36:36.497Z,27.14
2017-06-04T08:37:37.838Z,27.20
2017-06-04T08:38:39.165Z,27.31
2017-06-04T08:39:40.495Z,27.24
2017-06-04T08:40:41.830Z,27.19
2017-06-04T08:41:43.170Z,27.16
2017-06-04T08:42:44.509Z,27.17
2017-06-04T08:43:45.837Z,27.16
2017-06-04T08:44:47.175Z,27.33
2017-06-04T08:45:48.551Z,27.39
2017-06-04T08:46:49.884Z,27.36
2017-06-04T08:47:51.223Z,27.32
2017-06-04T08:48:52.549Z,27.46
2017-06-04T08:49:53.920Z,27.57
2017-06-04T08:50:55.284Z,27.54
2017-06-04T08:51:56.613Z,27.54
2017-06-04T08:52:57.953Z,27.59
2017-06-04T08:53:59.303Z,27.53
2017-06-04T08:55:00.651Z,27.39
2017-06-04T08:56:01.992Z,27.24
2017-06-04T08:57:03.312Z,27.39
2017-06-04T08:58:05.194Z,27.32
2017-06-04T08:59:06.523Z,27.54
2017-06-04T09:00:07.928Z,27.54
2017-06-04T09:01:09.334Z,27.43
2017-06-04T09:02:10.675Z,27.39
2017-06-04T09:03:12.073Z,27.38
2017-06-04T09:04:13.399Z,27.35
2017-06-04T09:05:14.730Z,27.38
2017-06-04T09:06:16.066Z,27.21
2017-06-04T09:07:17.401Z,27.16
2017-06-04T09:08:18.744Z,27.06
2017-06-04T09:09:20.116Z,27.14
2017-06-04T09:10:21.500Z,27.32
2017-06-04T09:11:22.853Z,27.42
2017-06-04T09:12:24.220Z,27.39
2017-06-04T09:13:25.545Z,27.36
2017-06-04T09:14:26.907Z,27.35
2017-06-04T09:15:28.241Z,27.33
2017-06-04T09:16:29.585Z,27.24
2017-06-04T09:17:31.077Z,27.32
2017-06-04T09:18:32.386Z,27.41
2017-06-04T09:19:33.721Z,27.47
2017-06-04T09:20:35.059Z,27.47
2017-06-04T09:21:36.390Z,27.57
2017-06-04T09:22:37.722Z,27.54
2017-06-04T09:23:39.733Z,27.54
2017-06-04T09:24:41.164Z,27.46
2017-06-04T09:25:42.496Z,27.50
2017-06-04T09:26:43.833Z,27.58
2017-06-04T09:27:45.175Z,27.73
2017-06-04T09:28:46.550Z,27.82
2017-06-04T09:29:48.693Z,27.82
2017-06-04T09:30:50.058Z,27.84
2017-06-04T09:31:51.386Z,27.91
2017-06-04T09:32:52.725Z,27.96
2017-06-04T09:33:54.054Z,27.84
2017-06-04T09:34:55.382Z,27.89
2017-06-04T09:35:56.716Z,27.85
2017-06-04T09:36:58.055Z,27.86
2017-06-04T09:37:59.436Z,27.89
2017-06-04T09:39:00.765Z,27.80
2017-06-04T09:40:02.092Z,27.85
2017-06-04T09:41:03.423Z,27.82
2017-06-04T09:42:04.759Z,27.77
2017-06-04T09:43:06.081Z,27.71
2017-06-04T09:44:07.408Z,27.85
2017-06-04T09:45:08.758Z,27.88
2017-06-04T09:46:10.096Z,27.74
2017-06-04T09:47:11.443Z,27.71
2017-06-04T09:48:12.778Z,27.86
2017-06-04T09:49:14.183Z,27.92
2017-06-04T09:50:15.515Z,27.89
2017-06-04T09:51:16.849Z,27.70
2017-06-04T09:52:18.184Z,27.94
2017-06-04T09:53:19.517Z,28.01
2017-06-04T09:54:20.878Z,28.11
2017-06-04T09:55:22.271Z,27.98
2017-06-04T09:56:23.626Z,28.06
2017-06-04T09:57:24.955Z,28.22
2017-06-04T09:58:26.290Z,28.19
2017-06-04T09:59:27.621Z,28.25
2017-06-04T10:00:28.953Z,28.32
2017-06-04T10:01:30.291Z,28.25
2017-06-04T10:02:31.633Z,28.38
2017-06-04T10:03:32.975Z,28.28
2017-06-04T10:04:34.341Z,28.62
2017-06-04T10:05:35.695Z,28.54
2017-06-04T10:06:37.025Z,28.53
2017-06-04T10:07:38.354Z,28.38
2017-06-04T10:08:39.679Z,28.22
2017-06-04T10:09:41.009Z,28.11
2017-06-04T10:10:42.348Z,27.95
2017-06-04T10:11:43.691Z,27.77
2017-06-04T10:12:45.031Z,27.85
2017-06-04T10:13:46.357Z,27.80
2017-06-04T10:14:47.685Z,27.84
2017-06-04T10:15:49.014Z,27.77
2017-06-04T10:16:50.345Z,27.98
2017-06-04T10:17:51.688Z,27.86
2017-06-04T10:18:53.025Z,27.84
2017-06-04T10:19:54.369Z,28.06
2017-06-04T10:20:55.708Z,28.11
2017-06-04T10:21:57.045Z,28.16
2017-06-04T10:22:58.375Z,28.23
2017-06-04T10:23:59.725Z,28.22
2017-06-04T10:25:01.075Z,28.10
2017-06-04T10:26:02.415Z,27.99
2017-06-04T10:27:03.776Z,28.14
2017-06-04T10:28:05.113Z,28.23
2017-06-04T10:29:06.441Z,28.21
2017-06-04T10:30:07.785Z,28.11
2017-06-04T10:31:09.133Z,27.98
2017-06-04T10:32:10.537Z,27.98
2017-06-04T10:33:11.948Z,27.88
2017-06-04T10:34:13.288Z,27.99
2017-06-04T10:35:14.751Z,28.03
2017-06-04T10:36:16.089Z,27.99
2017-06-04T10:37:17.436Z,27.79
2017-06-04T10:38:18.833Z,27.70
2017-06-04T10:39:20.146Z,27.59
2017-06-04T10:40:21.487Z,27.71
2017-06-04T10:41:22.869Z,27.71
2017-06-04T10:42:24.203Z,27.57
2017-06-04T10:43:25.533Z,27.58
2017-06-04T10:44:26.874Z,27.58
2017-06-04T10:45:28.205Z,27.61
2017-06-04T10:46:29.540Z,27.38
2017-06-04T10:47:30.893Z,27.54
2017-06-04T10:48:32.230Z,27.24
2017-06-04T10:49:33.562Z,27.14
2017-06-04T10:50:35.022Z,27.21
2017-06-04T10:51:36.365Z,27.20
2017-06-04T10:52:37.693Z,27.35
2017-06-04T10:53:39.051Z,27.31
2017-06-04T10:54:40.379Z,27.26
2017-06-04T10:55:41.723Z,27.17
2017-06-04T10:56:43.090Z,26.81
2017-06-04T10:57:44.436Z,26.92
2017-06-04T10:58:45.760Z,27.09
2017-06-04T10:59:47.096Z,26.95
2017-06-04T11:00:48.423Z,26.77
2017-06-04T11:01:49.752Z,26.87
2017-06-04T11:02:51.117Z,26.89
2017-06-04T11:03:52.441Z,26.87
2017-06-04T11:04:53.783Z,26.47
2017-06-04T11:05:55.115Z,26.59
2017-06-04T11:06:56.482Z,26.73
2017-06-04T11:07:57.812Z,26.79
2017-06-04T11:08:59.145Z,26.83
2017-06-04T11:10:00.473Z,26.80
2017-06-04T11:11:01.807Z,26.81
2017-06-04T11:12:03.132Z,26.76
2017-06-04T11:13:04.463Z,26.72
2017-06-04T11:14:05.794Z,26.74
2017-06-04T11:15:07.116Z,26.68
2017-06-04T11:16:08.497Z,26.79
2017-06-04T11:17:09.827Z,26.65
2017-06-04T11:18:11.165Z,26.68
2017-06-04T11:19:12.567Z,26.62
2017-06-04T11:20:13.966Z,26.62
2017-06-04T11:21:15.298Z,26.44
2017-06-04T11:22:16.650Z,26.32
2017-06-04T11:23:18.017Z,26.28
2017-06-04T11:24:19.336Z,26.27
2017-06-04T11:25:20.667Z,26.29
2017-06-04T11:26:21.998Z,26.15
2017-06-04T11:27:23.321Z,26.24
2017-06-04T11:28:24.724Z,26.36
2017-06-04T11:29:26.053Z,26.39
2017-06-04T11:30:28.261Z,26.37
2017-06-04T11:31:29.623Z,26.27
2017-06-04T11:32:30.974Z,26.29
2017-06-04T11:33:32.303Z,26.37
2017-06-04T11:34:33.628Z,26.46
2017-06-04T11:35:34.959Z,26.27
2017-06-04T11:36:36.300Z,26.09
2017-06-04T11:37:37.628Z,26.18
2017-06-04T11:38:38.976Z,26.05
2017-06-04T11:39:40.330Z,26.01
2017-06-04T11:40:41.710Z,26.17
2017-06-04T11:41:43.044Z,26.24
2017-06-04T11:42:44.386Z,26.15
2017-06-04T11:43:45.723Z,26.09
2017-06-04T11:44:47.192Z,26.05
2017-06-04T11:45:48.539Z,26.18
2017-06-04T11:46:49.870Z,26.06
2017-06-04T11:47:51.205Z,25.97
2017-06-04T11:48:52.528Z,26.04
2017-06-04T11:49:53.864Z,25.90
2017-06-04T11:50:55.198Z,25.90
2017-06-04T11:51:56.533Z,25.89
2017-06-04T11:52:57.869Z,25.86
2017-06-04T11:53:59.249Z,26.01
2017-06-04T11:55:00.572Z,25.86
2017-06-04T11:56:01.910Z,25.97
2017-06-04T11:57:03.268Z,25.86
2017-06-04T11:58:04.600Z,25.82
2017-06-04T11:59:05.936Z,25.87
2017-06-04T12:00:07.271Z,25.94
2017-06-04T12:01:08.609Z,25.93
2017-06-04T12:02:09.961Z,25.87
2017-06-04T12:03:11.293Z,25.82
2017-06-04T12:04:12.624Z,25.89
2017-06-04T12:05:13.961Z,25.72
2017-06-04T12:06:15.309Z,25.64
2017-06-04T12:07:16.646Z,25.72
2017-06-04T12:08:18.032Z,25.83
2017-06-04T12:09:19.360Z,25.83
2017-06-04T12:10:20.704Z,25.65
2017-06-04T12:11:22.047Z,25.68
2017-06-04T12:12:23.372Z,25.83
2017-06-04T12:13:24.695Z,25.86
2017-06-04T12:14:26.066Z,25.68
2017-06-04T12:15:27.392Z,25.72
2017-06-04T12:16:28.711Z,25.79
2017-06-04T12:17:30.126Z,25.82
2017-06-04T12:18:31.458Z,25.87
2017-06-04T12:19:32.790Z,25.97
2017-06-04T12:20:34.122Z,25.87
2017-06-04T12:21:35.508Z,25.75
2017-06-04T12:22:36.849Z,25.64
2017-06-04T12:23:38.172Z,25.71
2017-06-04T12:24:39.499Z,25.64
2017-06-04T12:25:40.850Z,25.67
2017-06-04T12:26:42.189Z,25.62
2017-06-04T12:27:43.597Z,25.56
2017-06-04T12:28:44.919Z,25.53
2017-06-04T12:29:46.256Z,25.44
2017-06-04T12:30:47.601Z,25.44
2017-06-04T12:31:48.939Z,25.59
2017-06-04T12:32:50.284Z,25.61
2017-06-04T12:33:51.615Z,25.61
2017-06-04T12:34:52.991Z,25.50
2017-06-04T12:35:54.363Z,25.54
2017-06-04T12:36:55.693Z,25.54
2017-06-04T12:37:57.050Z,25.59
2017-06-04T12:38:59.032Z,25.57
2017-06-04T12:40:00.353Z,25.57
2017-06-04T12:41:01.684Z,25.47
2017-06-04T12:42:03.037Z,25.52
2017-06-04T12:43:04.375Z,25.44
2017-06-04T12:44:05.705Z,25.39
2017-06-04T12:45:07.033Z,25.30
2017-06-04T12:46:08.404Z,25.34
2017-06-04T12:47:09.728Z,25.02
2017-06-04T12:48:11.059Z,24.98
2017-06-04T12:49:12.382Z,24.71
2017-06-04T12:50:13.720Z,24.87
2017-06-04T12:51:15.054Z,24.95
2017-06-04T12:52:16.379Z,24.95
2017-06-04T12:53:17.710Z,24.90
2017-06-04T12:54:19.036Z,24.98
2017-06-04T12:55:20.454Z,24.90
2017-06-04T12:56:21.761Z,24.97
2017-06-04T12:57:23.094Z,24.79
2017-06-04T12:58:24.483Z,24.85
2017-06-04T12:59:25.809Z,24.88
2017-06-04T13:00:27.137Z,24.90
2017-06-04T13:01:28.486Z,24.73
2017-06-04T13:02:29.818Z,24.82
2017-06-04T13:03:31.166Z,24.94
2017-06-04T13:04:32.494Z,24.87
2017-06-04T13:05:33.827Z,24.83
2017-06-04T13:06:35.290Z,24.85
2017-06-04T13:07:36.636Z,24.75
2017-06-04T13:08:37.967Z,24.76
2017-06-04T13:09:39.293Z,24.68
2017-06-04T13:10:40.638Z,24.68